Time,TemperatureF,DewpointF,PressureIn,WindDirection,WindDirectionDegrees,WindSpeedMPH,WindSpeedGustMPH,Humidity,HourlyPrecipIn,Conditions,Clouds,dailyrainin,SolarRadiationWatts/m^2,SoftwareType,DateUTC
2013-01-13 00:02:00,15.0,9.0,-100.00,ENE,65,8.0,16.0,78,0.00,,,0.16,0.000000,,2013-01-13 08:02:00,
2013-01-13 00:11:00,15.0,9.0,-100.00,ENE,65,8.0,16.0,78,0.00,,,0.16,0.000000,,2013-01-13 08:11:00,
2013-01-13 00:22:00,15.0,9.0,-100.00,ENE,65,8.0,16.0,78,0.00,,,0.16,0.000000,,2013-01-13 08:22:00,
2013-01-13 00:32:00,15.0,9.0,-100.00,ENE,65,8.0,16.0,78,0.00,,,0.16,0.000000,,2013-01-13 08:32:00,
2013-01-13 00:52:00,13.0,9.0,-100.00,ESE,106,6.0,15.0,84,0.00,,,0.16,0.000000,,2013-01-13 08:52:00,
2013-01-13 01:02:00,13.0,9.0,-100.00,ESE,106,6.0,15.0,84,0.00,,,0.16,0.000000,,2013-01-13 09:02:00,
2013-01-13 01:12:00,13.0,9.0,-100.00,ESE,106,6.0,15.0,84,0.00,,,0.16,0.000000,,2013-01-13 09:12:00,
2013-01-13 01:22:00,13.0,9.0,-100.00,ESE,106,6.0,15.0,84,0.00,,,0.16,0.000000,,2013-01-13 09:22:00,
2013-01-13 01:32:00,13.0,9.0,-100.00,ESE,106,6.0,15.0,84,0.00,,,0.16,0.000000,,2013-01-13 09:32:00,
2013-01-13 02:02:00,13.0,9.0,-100.00,ESE,117,8.0,13.0,82,0.00,,,0.16,0.000000,,2013-01-13 10:02:00,
2013-01-13 02:12:00,13.0,9.0,-100.00,ESE,117,8.0,13.0,82,0.00,,,0.16,0.000000,,2013-01-13 10:12:00,
2013-01-13 02:22:00,13.0,9.0,-100.00,ESE,117,8.0,13.0,82,0.00,,,0.16,0.000000,,2013-01-13 10:22:00,
2013-01-13 02:32:00,13.0,9.0,-100.00,ESE,117,8.0,13.0,82,0.00,,,0.16,0.000000,,2013-01-13 10:32:00,
2013-01-13 03:02:00,13.0,9.0,-100.00,East,95,7.0,10.0,85,0.00,,,0.16,0.000000,,2013-01-13 11:02:00,
2013-01-13 03:12:00,13.0,9.0,-100.00,East,95,7.0,10.0,85,0.00,,,0.16,0.000000,,2013-01-13 11:12:00,
2013-01-13 03:22:00,13.0,9.0,-100.00,East,95,7.0,10.0,85,0.00,,,0.16,0.000000,,2013-01-13 11:22:00,
2013-01-13 03:32:00,13.0,9.0,-100.00,East,95,7.0,10.0,85,0.00,,,0.16,0.000000,,2013-01-13 11:32:00,
2013-01-13 04:03:00,12.0,9.0,-100.00,SE,139,4.0,15.0,86,0.00,,,0.16,0.000000,,2013-01-13 12:03:00,
2013-01-13 04:12:00,12.0,9.0,-100.00,SE,139,4.0,15.0,86,0.00,,,0.16,0.000000,,2013-01-13 12:12:00,
2013-01-13 04:22:00,12.0,9.0,-100.00,SE,139,4.0,15.0,86,0.00,,,0.16,0.000000,,2013-01-13 12:22:00,
2013-01-13 04:32:00,12.0,9.0,-100.00,SE,139,4.0,15.0,86,0.00,,,0.16,0.000000,,2013-01-13 12:32:00,
2013-01-13 04:53:00,13.0,10.0,-100.00,SSE,162,1.0,7.0,89,0.00,,,-99.99,0.000000,,2013-01-13 12:53:00,
2013-01-13 05:02:00,13.0,10.0,-100.00,SSE,162,1.0,7.0,89,0.00,,,-99.99,0.000000,,2013-01-13 13:02:00,
2013-01-13 05:12:00,13.0,10.0,-100.00,SSE,162,1.0,7.0,89,0.00,,,-99.99,0.000000,,2013-01-13 13:12:00,
2013-01-13 05:22:00,13.0,10.0,-100.00,SSE,162,1.0,7.0,89,0.00,,,-99.99,0.000000,,2013-01-13 13:22:00,
2013-01-13 05:32:00,13.0,10.0,-100.00,SSE,162,1.0,7.0,89,0.00,,,-99.99,0.000000,,2013-01-13 13:32:00,
2013-01-13 05:53:00,12.0,9.0,-100.00,ESE,119,4.0,8.0,87,0.00,,,0.16,0.000000,,2013-01-13 13:53:00,
2013-01-13 06:02:00,12.0,9.0,-100.00,ESE,119,4.0,8.0,87,0.00,,,0.16,0.000000,,2013-01-13 14:02:00,
2013-01-13 06:12:00,12.0,9.0,-100.00,ESE,119,4.0,8.0,87,0.00,,,0.16,0.000000,,2013-01-13 14:12:00,
2013-01-13 06:22:00,12.0,9.0,-100.00,ESE,119,4.0,8.0,87,0.00,,,0.16,0.000000,,2013-01-13 14:22:00,
2013-01-13 06:32:00,12.0,9.0,-100.00,ESE,119,4.0,8.0,87,0.00,,,0.16,0.000000,,2013-01-13 14:32:00,
2013-01-13 07:03:00,12.0,8.0,-100.00,ESE,104,6.0,8.0,84,0.00,,,0.16,0.000000,,2013-01-13 15:03:00,
2013-01-13 07:12:00,12.0,8.0,-100.00,ESE,104,6.0,8.0,84,0.00,,,0.16,0.000000,,2013-01-13 15:12:00,
2013-01-13 07:22:00,12.0,8.0,-100.00,ESE,104,6.0,8.0,84,0.00,,,0.16,0.000000,,2013-01-13 15:22:00,
2013-01-13 07:33:00,12.0,8.0,-100.00,ESE,104,6.0,8.0,84,0.00,,,0.16,0.000000,,2013-01-13 15:33:00,
2013-01-13 08:03:00,13.0,10.0,-100.00,SE,139,1.0,7.0,89,0.00,,,-99.99,1.000000,,2013-01-13 16:03:00,
2013-01-13 08:33:00,13.0,10.0,-100.00,SE,139,1.0,7.0,89,0.00,,,-99.99,1.000000,,2013-01-13 16:33:00,
2013-01-13 09:03:00,16.0,12.0,-100.00,SW,219,4.0,7.0,84,0.00,,,0.16,33.000000,,2013-01-13 17:03:00,
2013-01-13 10:03:00,23.0,16.0,-100.00,East,100,3.0,6.0,75,-99.99,,,0.16,130.000000,,2013-01-13 18:03:00,
2013-01-13 11:02:00,28.0,17.0,-100.00,ENE,74,5.0,9.0,62,-99.99,,,0.16,226.000000,,2013-01-13 19:02:00,
2013-01-13 12:02:00,35.0,21.0,-100.00,WSW,257,6.0,9.0,57,0.04,,,0.18,290.000000,,2013-01-13 20:02:00,
2013-01-13 13:03:00,32.0,21.0,-100.00,WSW,237,8.0,11.0,63,-99.99,,,0.16,269.000000,,2013-01-13 21:03:00,
2013-01-13 13:12:00,32.0,21.0,-100.00,WSW,237,8.0,11.0,63,-99.99,,,0.16,269.000000,,2013-01-13 21:12:00,
2013-01-13 13:23:00,32.0,21.0,-100.00,WSW,237,8.0,11.0,63,-99.99,,,0.16,269.000000,,2013-01-13 21:23:00,
2013-01-13 13:32:00,32.0,21.0,-100.00,WSW,237,8.0,11.0,63,-99.99,,,0.16,269.000000,,2013-01-13 21:32:00,
2013-01-13 14:02:00,31.0,20.0,-100.00,SW,227,8.0,14.0,62,0.00,,,0.14,381.000000,,2013-01-13 22:02:00,
2013-01-13 14:12:00,31.0,20.0,-100.00,SW,227,8.0,14.0,62,0.00,,,0.14,381.000000,,2013-01-13 22:12:00,
2013-01-13 14:22:00,31.0,20.0,-100.00,SW,227,8.0,14.0,62,0.00,,,0.14,381.000000,,2013-01-13 22:22:00,
2013-01-13 14:33:00,31.0,20.0,-100.00,SW,227,8.0,14.0,62,0.00,,,0.14,381.000000,,2013-01-13 22:33:00,
2013-01-13 15:02:00,34.0,23.0,-100.00,West,270,6.0,12.0,63,0.00,,,0.10,338.000000,,2013-01-13 23:02:00,
2013-01-13 15:12:00,34.0,23.0,-100.00,West,270,6.0,12.0,63,0.00,,,0.10,338.000000,,2013-01-13 23:12:00,
2013-01-13 15:22:00,34.0,23.0,-100.00,West,270,6.0,12.0,63,0.00,,,0.10,338.000000,,2013-01-13 23:22:00,
2013-01-13 15:32:00,34.0,23.0,-100.00,West,270,6.0,12.0,63,0.00,,,0.10,338.000000,,2013-01-13 23:32:00,
2013-01-13 16:02:00,32.0,23.0,-100.00,West,270,6.0,10.0,68,0.00,,,0.05,246.000000,,2013-01-14 00:02:00,
2013-01-13 16:12:00,32.0,23.0,-100.00,West,270,6.0,10.0,68,0.00,,,0.05,246.000000,,2013-01-14 00:12:00,
2013-01-13 16:22:00,32.0,23.0,-100.00,West,270,6.0,10.0,68,0.00,,,0.05,246.000000,,2013-01-14 00:22:00,
2013-01-13 16:32:00,32.0,23.0,-100.00,West,270,6.0,10.0,68,0.00,,,0.05,246.000000,,2013-01-14 00:32:00,
2013-01-13 17:02:00,26.0,21.0,-100.00,West,272,4.0,9.0,80,0.00,,,0.05,99.000000,,2013-01-14 01:02:00,
2013-01-13 17:12:00,26.0,21.0,-100.00,West,272,4.0,9.0,80,0.00,,,0.05,99.000000,,2013-01-14 01:12:00,
2013-01-13 17:22:00,26.0,21.0,-100.00,West,272,4.0,9.0,80,0.00,,,0.05,99.000000,,2013-01-14 01:22:00,
2013-01-13 17:32:00,26.0,21.0,-100.00,West,272,4.0,9.0,80,0.00,,,0.05,99.000000,,2013-01-14 01:32:00,
2013-01-13 18:02:00,21.0,16.0,-100.00,East,92,3.0,7.0,80,0.00,,,0.05,7.000000,,2013-01-14 02:02:00,
2013-01-13 18:12:00,21.0,16.0,-100.00,East,92,3.0,7.0,80,0.00,,,0.05,7.000000,,2013-01-14 02:12:00,
2013-01-13 18:22:00,21.0,16.0,-100.00,East,92,3.0,7.0,80,0.00,,,0.05,7.000000,,2013-01-14 02:22:00,
2013-01-13 18:32:00,21.0,16.0,-100.00,East,92,3.0,7.0,80,0.00,,,0.05,7.000000,,2013-01-14 02:32:00,
2013-01-13 19:02:00,20.0,15.0,-100.00,ESE,118,6.0,9.0,82,0.00,,,0.05,0.000000,,2013-01-14 03:02:00,
2013-01-13 19:12:00,20.0,15.0,-100.00,ESE,118,6.0,9.0,82,0.00,,,0.05,0.000000,,2013-01-14 03:12:00,
2013-01-13 19:22:00,20.0,15.0,-100.00,ESE,118,6.0,9.0,82,0.00,,,0.05,0.000000,,2013-01-14 03:22:00,
2013-01-13 19:32:00,20.0,15.0,-100.00,ESE,118,6.0,9.0,82,0.00,,,0.05,0.000000,,2013-01-14 03:32:00,
2013-01-13 20:02:00,18.0,15.0,-100.00,ESE,114,3.0,8.0,89,0.00,,,0.05,0.000000,,2013-01-14 04:02:00,
2013-01-13 20:12:00,18.0,15.0,-100.00,ESE,114,3.0,8.0,89,0.00,,,0.05,0.000000,,2013-01-14 04:12:00,
2013-01-13 20:22:00,18.0,15.0,-100.00,ESE,114,3.0,8.0,89,0.00,,,0.05,0.000000,,2013-01-14 04:22:00,
2013-01-13 20:32:00,18.0,15.0,-100.00,ESE,114,3.0,8.0,89,0.00,,,0.05,0.000000,,2013-01-14 04:32:00,
2013-01-13 21:03:00,17.0,14.0,-100.00,ESE,109,9.0,14.0,86,0.00,,,0.05,0.000000,,2013-01-14 05:03:00,
2013-01-13 21:12:00,17.0,14.0,-100.00,ESE,109,9.0,14.0,86,0.00,,,0.05,0.000000,,2013-01-14 05:12:00,
2013-01-13 21:22:00,17.0,14.0,-100.00,ESE,109,9.0,14.0,86,0.00,,,0.05,0.000000,,2013-01-14 05:22:00,
2013-01-13 21:32:00,17.0,14.0,-100.00,ESE,109,9.0,14.0,86,0.00,,,0.05,0.000000,,2013-01-14 05:32:00,
2013-01-13 22:02:00,17.0,11.0,-100.00,ESE,122,10.0,17.0,77,0.00,,,0.05,0.000000,,2013-01-14 06:02:00,
2013-01-13 22:12:00,17.0,11.0,-100.00,ESE,122,10.0,17.0,77,0.00,,,0.05,0.000000,,2013-01-14 06:12:00,
2013-01-13 22:22:00,17.0,11.0,-100.00,ESE,122,10.0,17.0,77,0.00,,,0.05,0.000000,,2013-01-14 06:22:00,
2013-01-13 22:32:00,17.0,11.0,-100.00,ESE,122,10.0,17.0,77,0.00,,,0.05,0.000000,,2013-01-14 06:32:00,
2013-01-13 23:02:00,16.0,9.0,-100.00,SE,124,11.0,21.0,74,0.00,,,0.05,0.000000,,2013-01-14 07:02:00,
2013-01-13 23:12:00,16.0,9.0,-100.00,SE,124,11.0,21.0,74,0.00,,,0.05,0.000000,,2013-01-14 07:12:00,
2013-01-13 23:22:00,16.0,9.0,-100.00,SE,124,11.0,21.0,74,0.00,,,0.05,0.000000,,2013-01-14 07:22:00,
2013-01-13 23:32:00,16.0,9.0,-100.00,SE,124,11.0,21.0,74,0.00,,,0.05,0.000000,,2013-01-14 07:32:00,